sensor_id;sensor_type;location;lat;lon;timestamp;pressure;altitude;pressure_sealevel;temperature;humidity
63500;BME280;49654;51.142;14.924;2023-02-19T00:02:10;99017.16;;;9.48;89.06
63500;BME280;49654;51.142;14.924;2023-02-19T00:04:37;99020.13;;;9.68;86.75
63500;BME280;49654;51.142;14.924;2023-02-19T00:07:03;99013.09;;;9.77;86.63
63500;BME280;49654;51.142;14.924;2023-02-19T00:09:30;99003.34;;;9.79;86.16
63500;BME280;49654;51.142;14.924;2023-02-19T00:11:57;98997.47;;;9.39;88.01
63500;BME280;49654;51.142;14.924;2023-02-19T00:14:24;98988.75;;;9.32;88.47
63500;BME280;49654;51.142;14.924;2023-02-19T00:16:52;98980.88;;;9.25;89.04
63500;BME280;49654;51.142;14.924;2023-02-19T00:19:20;98986.97;;;9.01;89.95
63500;BME280;49654;51.142;14.924;2023-02-19T00:21:47;98979.66;;;9.05;89.17
63500;BME280;49654;51.142;14.924;2023-02-19T00:24:14;98995.28;;;9.20;88.74
63500;BME280;49654;51.142;14.924;2023-02-19T00:26:42;98984.78;;;9.21;88.50
63500;BME280;49654;51.142;14.924;2023-02-19T00:29:11;98961.50;;;9.13;87.89
63500;BME280;49654;51.142;14.924;2023-02-19T00:31:38;98990.44;;;9.25;88.40
63500;BME280;49654;51.142;14.924;2023-02-19T00:34:08;98987.69;;;9.18;87.98
63500;BME280;49654;51.142;14.924;2023-02-19T00:36:37;98991.38;;;9.24;87.87
63500;BME280;49654;51.142;14.924;2023-02-19T00:39:05;98963.31;;;9.05;87.33
63500;BME280;49654;51.142;14.924;2023-02-19T00:41:33;98990.28;;;9.18;87.00
63500;BME280;49654;51.142;14.924;2023-02-19T00:44:01;98984.88;;;9.28;85.90
63500;BME280;49654;51.142;14.924;2023-02-19T00:46:31;98986.63;;;9.36;85.47
63500;BME280;49654;51.142;14.924;2023-02-19T00:48:58;98983.22;;;9.35;84.80
63500;BME280;49654;51.142;14.924;2023-02-19T00:51:28;98980.88;;;9.48;84.40
63500;BME280;49654;51.142;14.924;2023-02-19T00:53:56;98981.44;;;9.36;84.27
63500;BME280;49654;51.142;14.924;2023-02-19T00:56:23;98972.34;;;9.40;84.28
63500;BME280;49654;51.142;14.924;2023-02-19T00:58:50;98959.72;;;9.37;83.87
63500;BME280;49654;51.142;14.924;2023-02-19T01:01:18;98967.16;;;9.40;83.28
63500;BME280;49654;51.142;14.924;2023-02-19T01:03:45;98957.13;;;9.37;83.10
63500;BME280;49654;51.142;14.924;2023-02-19T01:06:14;98959.22;;;9.41;83.00
63500;BME280;49654;51.142;14.924;2023-02-19T01:08:43;98967.31;;;9.46;82.17
63500;BME280;49654;51.142;14.924;2023-02-19T01:11:11;98955.94;;;9.47;81.47
63500;BME280;49654;51.142;14.924;2023-02-19T01:13:38;98938.94;;;9.45;80.96
63500;BME280;49654;51.142;14.924;2023-02-19T01:16:07;98944.34;;;9.58;80.76
63500;BME280;49654;51.142;14.924;2023-02-19T01:18:35;98941.81;;;9.50;80.36
63500;BME280;49654;51.142;14.924;2023-02-19T01:21:04;98942.34;;;9.45;80.31
63500;BME280;49654;51.142;14.924;2023-02-19T01:23:32;98937.97;;;9.46;80.12
63500;BME280;49654;51.142;14.924;2023-02-19T01:26:03;98927.91;;;9.51;79.79
63500;BME280;49654;51.142;14.924;2023-02-19T01:28:30;98952.66;;;9.53;79.32
63500;BME280;49654;51.142;14.924;2023-02-19T01:31:00;98938.28;;;9.51;79.14
63500;BME280;49654;51.142;14.924;2023-02-19T01:33:27;98935.31;;;9.54;79.39
63500;BME280;49654;51.142;14.924;2023-02-19T01:35:54;98922.59;;;9.44;79.77
63500;BME280;49654;51.142;14.924;2023-02-19T01:38:21;98914.06;;;9.36;80.21
63500;BME280;49654;51.142;14.924;2023-02-19T01:40:53;98915.28;;;9.48;80.22
63500;BME280;49654;51.142;14.924;2023-02-19T01:43:22;98914.22;;;9.57;80.40
63500;BME280;49654;51.142;14.924;2023-02-19T01:45:49;98909.56;;;9.52;80.10
63500;BME280;49654;51.142;14.924;2023-02-19T01:48:18;98916.38;;;9.53;80.54
63500;BME280;49654;51.142;14.924;2023-02-19T01:50:49;98907.84;;;9.68;80.13
63500;BME280;49654;51.142;14.924;2023-02-19T01:53:20;98892.69;;;9.57;80.37
63500;BME280;49654;51.142;14.924;2023-02-19T01:55:51;98888.94;;;9.59;80.49
63500;BME280;49654;51.142;14.924;2023-02-19T01:58:19;98897.47;;;9.68;80.56
63500;BME280;49654;51.142;14.924;2023-02-19T02:00:47;98891.88;;;9.56;81.15
63500;BME280;49654;51.142;14.924;2023-02-19T02:03:16;98881.47;;;9.64;81.17
63500;BME280;49654;51.142;14.924;2023-02-19T02:05:49;98869.38;;;9.57;80.82
63500;BME280;49654;51.142;14.924;2023-02-19T02:08:19;98874.47;;;9.65;81.52
63500;BME280;49654;51.142;14.924;2023-02-19T02:11:04;98869.03;;;9.60;81.65
63500;BME280;49654;51.142;14.924;2023-02-19T02:13:32;98864.63;;;9.60;81.52
63500;BME280;49654;51.142;14.924;2023-02-19T02:16:16;98862.72;;;9.54;81.88
63500;BME280;49654;51.142;14.924;2023-02-19T02:18:54;98849.50;;;9.49;82.28
63500;BME280;49654;51.142;14.924;2023-02-19T02:21:34;98855.75;;;9.54;81.94
63500;BME280;49654;51.142;14.924;2023-02-19T02:24:11;98856.34;;;9.42;82.91
63500;BME280;49654;51.142;14.924;2023-02-19T02:26:57;98856.34;;;9.42;84.17
63500;BME280;49654;51.142;14.924;2023-02-19T02:30:00;98874.63;;;9.48;85.13
63500;BME280;49654;51.142;14.924;2023-02-19T02:32:34;98878.59;;;9.13;84.50
63500;BME280;49654;51.142;14.924;2023-02-19T02:35:07;98867.44;;;9.13;85.32
63500;BME280;49654;51.142;14.924;2023-02-19T02:37:38;98829.25;;;9.07;85.84
63500;BME280;49654;51.142;14.924;2023-02-19T02:40:08;98845.13;;;9.03;86.35
63500;BME280;49654;51.142;14.924;2023-02-19T02:42:38;98844.69;;;9.23;86.55
63500;BME280;49654;51.142;14.924;2023-02-19T02:45:22;98840.72;;;9.12;86.26
63500;BME280;49654;51.142;14.924;2023-02-19T02:48:09;98848.22;;;8.99;86.67
63500;BME280;49654;51.142;14.924;2023-02-19T02:50:42;98844.13;;;9.13;87.27
63500;BME280;49654;51.142;14.924;2023-02-19T02:56:00;98837.34;;;8.81;87.87
63500;BME280;49654;51.142;14.924;2023-02-19T02:58:28;98832.78;;;8.91;88.24
63500;BME280;49654;51.142;14.924;2023-02-19T03:01:00;98777.50;;;8.52;88.48
63500;BME280;49654;51.142;14.924;2023-02-19T03:03:48;98822.97;;;8.78;88.65
63500;BME280;49654;51.142;14.924;2023-02-19T03:06:18;98833.44;;;8.85;88.98
63500;BME280;49654;51.142;14.924;2023-02-19T03:08:51;98839.28;;;8.87;89.16
63500;BME280;49654;51.142;14.924;2023-02-19T03:11:20;98817.34;;;8.74;89.24
63500;BME280;49654;51.142;14.924;2023-02-19T03:14:10;98835.41;;;8.83;89.90
63500;BME280;49654;51.142;14.924;2023-02-19T03:16:59;98790.97;;;8.48;90.40
63500;BME280;49654;51.142;14.924;2023-02-19T03:19:48;98832.41;;;8.71;90.76
63500;BME280;49654;51.142;14.924;2023-02-19T03:22:18;98810.88;;;8.70;90.65
63500;BME280;49654;51.142;14.924;2023-02-19T03:24:50;98806.38;;;8.64;90.65
63500;BME280;49654;51.142;14.924;2023-02-19T03:27:38;98795.69;;;8.67;90.71
63500;BME280;49654;51.142;14.924;2023-02-19T03:30:10;98810.09;;;8.70;91.12
63500;BME280;49654;51.142;14.924;2023-02-19T03:32:43;98775.09;;;8.43;91.43
63500;BME280;49654;51.142;14.924;2023-02-19T03:35:15;98814.78;;;8.66;91.41
63500;BME280;49654;51.142;14.924;2023-02-19T03:37:45;98795.22;;;8.64;91.57
63500;BME280;49654;51.142;14.924;2023-02-19T03:40:15;98791.50;;;8.66;91.26
63500;BME280;49654;51.142;14.924;2023-02-19T03:42:48;98782.88;;;8.74;91.15
63500;BME280;49654;51.142;14.924;2023-02-19T03:45:31;98790.41;;;8.84;90.86
63500;BME280;49654;51.142;14.924;2023-02-19T03:48:06;98795.59;;;8.84;90.40
63500;BME280;49654;51.142;14.924;2023-02-19T03:50:44;98799.03;;;8.76;90.81
63500;BME280;49654;51.142;14.924;2023-02-19T03:53:21;98797.44;;;8.75;90.93
63500;BME280;49654;51.142;14.924;2023-02-19T03:56:00;98688.09;;;8.19;90.40
63500;BME280;49654;51.142;14.924;2023-02-19T03:58:33;98719.22;;;8.25;90.38
63500;BME280;49654;51.142;14.924;2023-02-19T04:01:06;98741.66;;;8.33;90.96
63500;BME280;49654;51.142;14.924;2023-02-19T04:03:39;98721.75;;;8.11;91.28
63500;BME280;49654;51.142;14.924;2023-02-19T04:06:12;98759.91;;;8.48;91.54
63500;BME280;49654;51.142;14.924;2023-02-19T04:08:44;98785.19;;;8.61;91.56
63500;BME280;49654;51.142;14.924;2023-02-19T04:11:14;98771.91;;;8.64;91.75
63500;BME280;49654;51.142;14.924;2023-02-19T04:13:45;98769.84;;;8.59;91.45
63500;BME280;49654;51.142;14.924;2023-02-19T04:16:17;98767.91;;;8.61;92.16
63500;BME280;49654;51.142;14.924;2023-02-19T04:18:50;98775.53;;;8.55;92.66
63500;BME280;49654;51.142;14.924;2023-02-19T04:21:19;98743.28;;;8.34;92.77
63500;BME280;49654;51.142;14.924;2023-02-19T04:23:48;98770.69;;;8.51;93.10
63500;BME280;49654;51.142;14.924;2023-02-19T04:26:16;98733.47;;;8.21;93.54
63500;BME280;49654;51.142;14.924;2023-02-19T04:28:45;98758.31;;;8.39;93.88
63500;BME280;49654;51.142;14.924;2023-02-19T04:31:12;98768.81;;;8.45;94.09
63500;BME280;49654;51.142;14.924;2023-02-19T04:33:39;98781.91;;;8.44;94.39
63500;BME280;49654;51.142;14.924;2023-02-19T04:36:09;98773.78;;;8.47;94.32
63500;BME280;49654;51.142;14.924;2023-02-19T04:38:36;98765.75;;;8.42;94.12
63500;BME280;49654;51.142;14.924;2023-02-19T04:41:04;98765.88;;;8.48;94.13
63500;BME280;49654;51.142;14.924;2023-02-19T04:43:31;98754.59;;;8.41;93.97
63500;BME280;49654;51.142;14.924;2023-02-19T04:45:59;98765.41;;;8.45;93.28
63500;BME280;49654;51.142;14.924;2023-02-19T04:48:27;98760.09;;;8.30;93.01
63500;BME280;49654;51.142;14.924;2023-02-19T04:50:53;98760.91;;;8.39;92.86
63500;BME280;49654;51.142;14.924;2023-02-19T04:53:22;98720.47;;;8.07;92.51
63500;BME280;49654;51.142;14.924;2023-02-19T04:55:49;98760.97;;;8.22;93.05
63500;BME280;49654;51.142;14.924;2023-02-19T04:58:19;98699.84;;;7.90;92.36
63500;BME280;49654;51.142;14.924;2023-02-19T05:00:50;98753.53;;;8.19;92.87
63500;BME280;49654;51.142;14.924;2023-02-19T05:03:18;98727.06;;;8.09;92.70
63500;BME280;49654;51.142;14.924;2023-02-19T05:05:45;98757.88;;;8.27;92.91
63500;BME280;49654;51.142;14.924;2023-02-19T05:08:12;98749.50;;;8.17;92.96
63500;BME280;49654;51.142;14.924;2023-02-19T05:10:40;98741.63;;;8.10;93.13
63500;BME280;49654;51.142;14.924;2023-02-19T05:13:07;98754.31;;;8.28;92.93
63500;BME280;49654;51.142;14.924;2023-02-19T05:15:34;98766.81;;;8.16;92.51
63500;BME280;49654;51.142;14.924;2023-02-19T05:18:02;98754.56;;;8.10;92.48
63500;BME280;49654;51.142;14.924;2023-02-19T05:20:29;98691.06;;;7.68;92.49
63500;BME280;49654;51.142;14.924;2023-02-19T05:22:56;98724.44;;;7.78;92.26
63500;BME280;49654;51.142;14.924;2023-02-19T05:25:23;98750.44;;;7.93;91.92
63500;BME280;49654;51.142;14.924;2023-02-19T05:27:52;98720.78;;;7.72;91.89
63500;BME280;49654;51.142;14.924;2023-02-19T05:30:39;98683.53;;;7.50;91.57
63500;BME280;49654;51.142;14.924;2023-02-19T05:33:06;98742.00;;;7.99;91.87
63500;BME280;49654;51.142;14.924;2023-02-19T05:35:33;98732.06;;;7.80;92.15
63500;BME280;49654;51.142;14.924;2023-02-19T05:38:05;98622.63;;;7.09;92.17
63500;BME280;49654;51.142;14.924;2023-02-19T05:40:33;98652.25;;;7.37;92.32
63500;BME280;49654;51.142;14.924;2023-02-19T05:43:02;98741.38;;;7.97;92.13
63500;BME280;49654;51.142;14.924;2023-02-19T05:45:29;98740.69;;;8.03;92.00
63500;BME280;49654;51.142;14.924;2023-02-19T05:47:56;98724.56;;;7.93;92.17
63500;BME280;49654;51.142;14.924;2023-02-19T05:50:24;98745.25;;;7.93;92.73
63500;BME280;49654;51.142;14.924;2023-02-19T05:52:51;98757.53;;;7.91;93.42
63500;BME280;49654;51.142;14.924;2023-02-19T05:55:18;98752.03;;;7.94;93.63
63500;BME280;49654;51.142;14.924;2023-02-19T05:57:46;98695.16;;;7.55;93.75
63500;BME280;49654;51.142;14.924;2023-02-19T06:00:17;98763.16;;;8.02;93.99
63500;BME280;49654;51.142;14.924;2023-02-19T06:02:45;98757.16;;;8.10;93.49
63500;BME280;49654;51.142;14.924;2023-02-19T06:05:12;98756.38;;;8.01;93.82
63500;BME280;49654;51.142;14.924;2023-02-19T06:07:39;98759.44;;;8.05;93.61
63500;BME280;49654;51.142;14.924;2023-02-19T06:10:08;98736.63;;;8.00;93.81
63500;BME280;49654;51.142;14.924;2023-02-19T06:12:36;98762.44;;;8.17;93.46
63500;BME280;49654;51.142;14.924;2023-02-19T06:15:03;98767.34;;;8.03;93.73
63500;BME280;49654;51.142;14.924;2023-02-19T06:17:32;98706.22;;;7.80;93.19
63500;BME280;49654;51.142;14.924;2023-02-19T06:20:00;98763.59;;;8.14;92.81
63500;BME280;49654;51.142;14.924;2023-02-19T06:22:27;98704.59;;;7.70;92.75
63500;BME280;49654;51.142;14.924;2023-02-19T06:24:54;98762.63;;;8.15;92.13
63500;BME280;49654;51.142;14.924;2023-02-19T06:27:21;98759.44;;;8.05;92.34
63500;BME280;49654;51.142;14.924;2023-02-19T06:29:49;98768.94;;;8.04;92.46
63500;BME280;49654;51.142;14.924;2023-02-19T06:32:16;98771.03;;;8.09;92.06
63500;BME280;49654;51.142;14.924;2023-02-19T06:34:45;98775.53;;;8.15;91.82
63500;BME280;49654;51.142;14.924;2023-02-19T06:37:11;98769.09;;;8.11;91.81
63500;BME280;49654;51.142;14.924;2023-02-19T06:39:38;98776.13;;;8.25;91.63
63500;BME280;49654;51.142;14.924;2023-02-19T06:42:06;98780.06;;;8.13;92.15
63500;BME280;49654;51.142;14.924;2023-02-19T06:44:33;98783.38;;;8.30;92.09
63500;BME280;49654;51.142;14.924;2023-02-19T06:47:00;98761.97;;;8.13;92.19
63500;BME280;49654;51.142;14.924;2023-02-19T06:49:28;98712.69;;;7.75;92.26
63500;BME280;49654;51.142;14.924;2023-02-19T06:51:56;98761.03;;;8.06;92.38
63500;BME280;49654;51.142;14.924;2023-02-19T06:54:24;98772.13;;;8.23;92.31
63500;BME280;49654;51.142;14.924;2023-02-19T06:56:51;98708.81;;;7.80;92.34
63500;BME280;49654;51.142;14.924;2023-02-19T06:59:18;98736.50;;;8.02;92.01
63500;BME280;49654;51.142;14.924;2023-02-19T07:01:45;98756.84;;;8.05;91.88
63500;BME280;49654;51.142;14.924;2023-02-19T07:04:13;98817.53;;;8.25;90.28
63500;BME280;49654;51.142;14.924;2023-02-19T07:06:40;98837.34;;;8.02;89.43
63500;BME280;49654;51.142;14.924;2023-02-19T07:09:09;98806.56;;;7.43;89.07
63500;BME280;49654;51.142;14.924;2023-02-19T07:11:37;98859.03;;;7.27;89.17
63500;BME280;49654;51.142;14.924;2023-02-19T07:14:06;98861.16;;;7.16;89.61
63500;BME280;49654;51.142;14.924;2023-02-19T07:16:34;98867.09;;;7.08;89.62
63500;BME280;49654;51.142;14.924;2023-02-19T07:19:01;98869.69;;;7.16;89.58
63500;BME280;49654;51.142;14.924;2023-02-19T07:21:29;98844.75;;;6.66;89.06
63500;BME280;49654;51.142;14.924;2023-02-19T07:23:56;98884.03;;;6.94;90.29
63500;BME280;49654;51.142;14.924;2023-02-19T07:26:26;98860.72;;;6.70;90.26
63500;BME280;49654;51.142;14.924;2023-02-19T07:28:53;98885.13;;;6.92;90.66
63500;BME280;49654;51.142;14.924;2023-02-19T07:31:22;98888.69;;;6.91;90.19
63500;BME280;49654;51.142;14.924;2023-02-19T07:33:49;98910.47;;;6.54;89.49
63500;BME280;49654;51.142;14.924;2023-02-19T07:36:17;98892.72;;;6.43;89.69
63500;BME280;49654;51.142;14.924;2023-02-19T07:38:45;98912.00;;;6.65;89.04
63500;BME280;49654;51.142;14.924;2023-02-19T07:41:12;98911.66;;;6.34;88.88
63500;BME280;49654;51.142;14.924;2023-02-19T07:43:40;98814.44;;;5.40;88.94
63500;BME280;49654;51.142;14.924;2023-02-19T07:46:09;98843.25;;;5.87;89.53
63500;BME280;49654;51.142;14.924;2023-02-19T07:48:37;98938.47;;;6.41;88.03
63500;BME280;49654;51.142;14.924;2023-02-19T07:51:09;98919.16;;;6.19;87.72
63500;BME280;49654;51.142;14.924;2023-02-19T07:53:37;98889.75;;;6.30;87.44
63500;BME280;49654;51.142;14.924;2023-02-19T07:56:05;98923.81;;;6.41;87.15
63500;BME280;49654;51.142;14.924;2023-02-19T07:58:33;98875.94;;;6.39;86.85
63500;BME280;49654;51.142;14.924;2023-02-19T08:01:07;98888.47;;;6.34;85.43
63500;BME280;49654;51.142;14.924;2023-02-19T08:03:35;98922.69;;;6.78;85.47
63500;BME280;49654;51.142;14.924;2023-02-19T08:06:01;98946.22;;;7.34;83.74
63500;BME280;49654;51.142;14.924;2023-02-19T08:08:28;98966.41;;;7.30;82.37
63500;BME280;49654;51.142;14.924;2023-02-19T08:10:58;98921.94;;;6.94;82.54
63500;BME280;49654;51.142;14.924;2023-02-19T08:13:43;98979.75;;;7.09;83.97
63500;BME280;49654;51.142;14.924;2023-02-19T08:16:13;98989.25;;;7.09;84.06
63500;BME280;49654;51.142;14.924;2023-02-19T08:18:42;98960.91;;;6.74;83.80
63500;BME280;49654;51.142;14.924;2023-02-19T08:21:10;98995.50;;;6.98;84.15
63500;BME280;49654;51.142;14.924;2023-02-19T08:23:37;99001.38;;;6.74;84.63
63500;BME280;49654;51.142;14.924;2023-02-19T08:26:05;98991.69;;;6.76;84.91
63500;BME280;49654;51.142;14.924;2023-02-19T08:28:32;99025.94;;;6.52;84.50
63500;BME280;49654;51.142;14.924;2023-02-19T08:31:00;98954.44;;;5.92;85.12
63500;BME280;49654;51.142;14.924;2023-02-19T08:33:29;99023.44;;;5.98;84.63
63500;BME280;49654;51.142;14.924;2023-02-19T08:36:00;99052.47;;;6.00;85.21
63500;BME280;49654;51.142;14.924;2023-02-19T08:38:29;99002.69;;;5.37;85.37
63500;BME280;49654;51.142;14.924;2023-02-19T08:40:56;99061.97;;;5.72;85.31
63500;BME280;49654;51.142;14.924;2023-02-19T08:43:24;99060.72;;;5.59;85.59
63500;BME280;49654;51.142;14.924;2023-02-19T08:45:52;99077.09;;;5.40;85.13
63500;BME280;49654;51.142;14.924;2023-02-19T08:48:21;99094.72;;;5.35;86.48
63500;BME280;49654;51.142;14.924;2023-02-19T08:50:56;99096.16;;;5.19;86.30
63500;BME280;49654;51.142;14.924;2023-02-19T08:53:24;99108.69;;;5.32;86.52
63500;BME280;49654;51.142;14.924;2023-02-19T08:55:52;99119.13;;;5.31;86.01
63500;BME280;49654;51.142;14.924;2023-02-19T08:58:19;99070.31;;;5.11;86.67
63500;BME280;49654;51.142;14.924;2023-02-19T09:00:46;99120.59;;;5.70;86.07
63500;BME280;49654;51.142;14.924;2023-02-19T09:03:13;99108.56;;;5.61;85.60
63500;BME280;49654;51.142;14.924;2023-02-19T09:05:40;99135.78;;;5.64;84.97
63500;BME280;49654;51.142;14.924;2023-02-19T09:08:09;99146.00;;;5.56;83.80
63500;BME280;49654;51.142;14.924;2023-02-19T09:10:36;99154.03;;;5.52;83.62
63500;BME280;49654;51.142;14.924;2023-02-19T09:13:03;99162.41;;;5.55;85.12
63500;BME280;49654;51.142;14.924;2023-02-19T09:15:30;99056.50;;;4.65;84.39
63500;BME280;49654;51.142;14.924;2023-02-19T09:17:58;99167.63;;;5.35;85.70
63500;BME280;49654;51.142;14.924;2023-02-19T09:20:25;99157.66;;;5.22;84.68
63500;BME280;49654;51.142;14.924;2023-02-19T09:22:55;99165.47;;;5.68;85.05
63500;BME280;49654;51.142;14.924;2023-02-19T09:25:24;99179.38;;;5.47;83.28
63500;BME280;49654;51.142;14.924;2023-02-19T09:27:53;99142.09;;;5.14;83.84
63500;BME280;49654;51.142;14.924;2023-02-19T09:30:20;99189.16;;;5.44;84.97
63500;BME280;49654;51.142;14.924;2023-02-19T09:32:47;99199.50;;;5.71;85.07
63500;BME280;49654;51.142;14.924;2023-02-19T09:35:14;99202.22;;;5.70;84.47
63500;BME280;49654;51.142;14.924;2023-02-19T09:37:41;99174.59;;;5.62;83.96
63500;BME280;49654;51.142;14.924;2023-02-19T09:40:09;99213.88;;;5.64;81.39
63500;BME280;49654;51.142;14.924;2023-02-19T09:42:39;99226.19;;;5.33;81.50
63500;BME280;49654;51.142;14.924;2023-02-19T09:45:16;99211.38;;;5.45;83.69
63500;BME280;49654;51.142;14.924;2023-02-19T09:47:44;99229.72;;;5.79;81.61
63500;BME280;49654;51.142;14.924;2023-02-19T09:50:15;99243.75;;;5.57;81.29
63500;BME280;49654;51.142;14.924;2023-02-19T09:52:44;99215.13;;;5.60;81.15
63500;BME280;49654;51.142;14.924;2023-02-19T09:55:15;99245.00;;;5.53;81.04
63500;BME280;49654;51.142;14.924;2023-02-19T09:57:45;99249.34;;;5.52;81.02
63500;BME280;49654;51.142;14.924;2023-02-19T10:00:20;99242.31;;;5.25;82.10
63500;BME280;49654;51.142;14.924;2023-02-19T10:02:50;99250.00;;;5.55;82.19
63500;BME280;49654;51.142;14.924;2023-02-19T10:05:18;99258.84;;;5.80;81.74
63500;BME280;49654;51.142;14.924;2023-02-19T10:07:50;99215.22;;;5.68;81.51
63500;BME280;49654;51.142;14.924;2023-02-19T10:10:26;99263.22;;;5.69;79.81
63500;BME280;49654;51.142;14.924;2023-02-19T10:13:04;99269.59;;;5.75;81.42
63500;BME280;49654;51.142;14.924;2023-02-19T10:15:38;99277.97;;;5.87;80.83
63500;BME280;49654;51.142;14.924;2023-02-19T10:18:08;99253.91;;;5.59;80.91
63500;BME280;49654;51.142;14.924;2023-02-19T10:20:35;99253.59;;;5.15;80.30
63500;BME280;49654;51.142;14.924;2023-02-19T10:23:03;99302.84;;;5.59;81.75
63500;BME280;49654;51.142;14.924;2023-02-19T10:25:32;99303.22;;;5.73;81.27
63500;BME280;49654;51.142;14.924;2023-02-19T10:28:01;99290.31;;;5.93;80.74
63500;BME280;49654;51.142;14.924;2023-02-19T10:30:31;99297.66;;;6.15;79.90
63500;BME280;49654;51.142;14.924;2023-02-19T10:33:02;99309.16;;;6.31;78.55
63500;BME280;49654;51.142;14.924;2023-02-19T10:35:29;99306.69;;;6.01;77.97
63500;BME280;49654;51.142;14.924;2023-02-19T10:38:00;99319.53;;;6.11;79.14
63500;BME280;49654;51.142;14.924;2023-02-19T10:40:29;99324.66;;;6.21;79.10
63500;BME280;49654;51.142;14.924;2023-02-19T10:42:58;99310.28;;;6.18;79.41
63500;BME280;49654;51.142;14.924;2023-02-19T10:45:34;99276.09;;;6.16;79.14
63500;BME280;49654;51.142;14.924;2023-02-19T10:48:05;99335.97;;;6.65;77.13
63500;BME280;49654;51.142;14.924;2023-02-19T10:50:35;99322.78;;;7.40;77.01
63500;BME280;49654;51.142;14.924;2023-02-19T10:53:04;99262.69;;;6.94;75.35
63500;BME280;49654;51.142;14.924;2023-02-19T10:55:32;99319.16;;;7.50;73.93
63500;BME280;49654;51.142;14.924;2023-02-19T10:58:21;99333.00;;;7.67;73.14
63500;BME280;49654;51.142;14.924;2023-02-19T11:01:09;99338.41;;;6.85;72.75
63500;BME280;49654;51.142;14.924;2023-02-19T11:03:36;99345.63;;;6.63;74.94
63500;BME280;49654;51.142;14.924;2023-02-19T11:06:05;99338.66;;;7.27;75.57
63500;BME280;49654;51.142;14.924;2023-02-19T11:08:45;99345.94;;;7.93;73.63
63500;BME280;49654;51.142;14.924;2023-02-19T11:11:25;99347.38;;;7.70;70.32
63500;BME280;49654;51.142;14.924;2023-02-19T11:13:53;99364.84;;;6.78;71.55
63500;BME280;49654;51.142;14.924;2023-02-19T11:16:36;99304.09;;;5.45;72.73
63500;BME280;49654;51.142;14.924;2023-02-19T11:19:04;99376.06;;;5.66;73.49
63500;BME280;49654;51.142;14.924;2023-02-19T11:21:31;99316.19;;;5.25;75.08
63500;BME280;49654;51.142;14.924;2023-02-19T11:23:59;99359.00;;;5.26;75.91
63500;BME280;49654;51.142;14.924;2023-02-19T11:26:31;99368.38;;;5.37;77.03
63500;BME280;49654;51.142;14.924;2023-02-19T11:29:15;99377.94;;;5.73;77.58
63500;BME280;49654;51.142;14.924;2023-02-19T11:31:45;99243.84;;;4.99;75.69
63500;BME280;49654;51.142;14.924;2023-02-19T11:34:26;99372.78;;;5.73;77.62
63500;BME280;49654;51.142;14.924;2023-02-19T11:37:08;99375.34;;;6.67;77.12
63500;BME280;49654;51.142;14.924;2023-02-19T11:39:35;99376.66;;;7.17;73.20
63500;BME280;49654;51.142;14.924;2023-02-19T11:42:19;99308.97;;;7.31;71.71
63500;BME280;49654;51.142;14.924;2023-02-19T11:44:59;99367.41;;;8.20;68.08
63500;BME280;49654;51.142;14.924;2023-02-19T11:47:41;99381.25;;;8.11;67.06
63500;BME280;49654;51.142;14.924;2023-02-19T11:50:20;99392.31;;;7.51;66.34
63500;BME280;49654;51.142;14.924;2023-02-19T11:52:58;99399.75;;;7.18;69.24
63500;BME280;49654;51.142;14.924;2023-02-19T11:55:38;99395.72;;;6.70;68.38
63500;BME280;49654;51.142;14.924;2023-02-19T12:01:10;99397.97;;;7.01;68.36
63500;BME280;49654;51.142;14.924;2023-02-19T12:03:56;99403.22;;;6.64;68.05
63500;BME280;49654;51.142;14.924;2023-02-19T12:06:36;99403.78;;;6.85;68.37
63500;BME280;49654;51.142;14.924;2023-02-19T12:09:20;99380.25;;;6.33;68.23
63500;BME280;49654;51.142;14.924;2023-02-19T12:11:58;99347.25;;;6.37;69.44
63500;BME280;49654;51.142;14.924;2023-02-19T12:14:46;99411.78;;;7.27;66.91
63500;BME280;49654;51.142;14.924;2023-02-19T12:17:28;99326.16;;;6.51;67.21
63500;BME280;49654;51.142;14.924;2023-02-19T12:20:13;99428.41;;;6.80;66.65
63500;BME280;49654;51.142;14.924;2023-02-19T12:22:49;99325.47;;;6.21;68.77
63500;BME280;49654;51.142;14.924;2023-02-19T12:25:40;99430.75;;;7.36;69.36
63500;BME280;49654;51.142;14.924;2023-02-19T12:28:35;99430.91;;;7.35;70.38
63500;BME280;49654;51.142;14.924;2023-02-19T12:34:18;99411.78;;;7.81;64.27
63500;BME280;49654;51.142;14.924;2023-02-19T12:37:01;99409.75;;;7.93;63.88
63500;BME280;49654;51.142;14.924;2023-02-19T12:39:41;99430.09;;;7.34;64.74
63500;BME280;49654;51.142;14.924;2023-02-19T12:42:25;99440.25;;;7.45;63.59
63500;BME280;49654;51.142;14.924;2023-02-19T12:44:56;99414.34;;;6.92;66.59
63500;BME280;49654;51.142;14.924;2023-02-19T12:47:28;99418.78;;;6.72;66.29
63500;BME280;49654;51.142;14.924;2023-02-19T12:50:02;99429.09;;;6.82;65.30
63500;BME280;49654;51.142;14.924;2023-02-19T12:52:36;99439.75;;;7.14;63.31
63500;BME280;49654;51.142;14.924;2023-02-19T12:55:12;99441.31;;;7.07;64.56
63500;BME280;49654;51.142;14.924;2023-02-19T12:57:45;99448.34;;;7.33;64.12
63500;BME280;49654;51.142;14.924;2023-02-19T13:00:26;99445.00;;;8.20;62.72
63500;BME280;49654;51.142;14.924;2023-02-19T13:02:59;99406.16;;;7.86;62.71
63500;BME280;49654;51.142;14.924;2023-02-19T13:05:39;99438.00;;;8.12;64.09
63500;BME280;49654;51.142;14.924;2023-02-19T13:08:14;99438.16;;;8.11;61.09
63500;BME280;49654;51.142;14.924;2023-02-19T13:10:47;99453.22;;;7.71;59.65
63500;BME280;49654;51.142;14.924;2023-02-19T13:13:19;99434.47;;;7.34;62.04
63500;BME280;49654;51.142;14.924;2023-02-19T13:15:50;99426.91;;;8.80;63.35
63500;BME280;49654;51.142;14.924;2023-02-19T13:18:19;99428.16;;;10.08;57.28
63500;BME280;49654;51.142;14.924;2023-02-19T13:20:48;99426.13;;;10.59;55.32
63500;BME280;49654;51.142;14.924;2023-02-19T13:23:22;99426.22;;;10.02;55.37
63500;BME280;49654;51.142;14.924;2023-02-19T13:26:18;99446.03;;;9.70;53.94
63500;BME280;49654;51.142;14.924;2023-02-19T13:28:58;99457.75;;;9.16;55.47
63500;BME280;49654;51.142;14.924;2023-02-19T13:31:46;99453.84;;;7.91;56.13